Terminal Aerodrome Forecast
Issued by NWS

Home | Current Version | Previous Version | Graphics & Text | Print | Product List | Glossary On
Versions: 1 2 3 4 5 6 7 8 9 10 11 12 13 14 15 16 17
000
FTUS43 KTOP 232300
TAFMHK
TAF
KMHK 232320Z 2400/2424 26006KT P6SM SCT200
     FM240200 28004KT P6SM SCT120
     FM241600 24010KT P6SM BKN120=

USA.gov is the U.S. government's official web portal to all federal, state and local government web resources and services.